Terminal Aerodrome Forecast
Issued by NWS North Platte, NE

Home | Current Version | Previous Version | Text Only | Print | Product List | Glossary Off
Versions: 1 2 3 4 5 6 7 8 9 10 11 12 13 14 15 16 17 18 19 20

102
FTUS43 KLBF 182320
TAFVTN
TAF
KVTN 182320Z 1900/1924 02007KT P6SM SKC
     FM190200 08006KT P6SM SKC
     FM190600 14004KT P6SM SKC
     FM191400 18008KT P6SM SKC
     FM192000 19012KT P6SM FEW200=

USA.gov is the U.S. government's official web portal to all federal, state and local government web resources and services.